createdAt,value
2023-01-15T00:01:01.867Z,0.77
2023-01-15T00:03:28.629Z,1.00
2023-01-15T00:05:54.861Z,0.80
2023-01-15T00:08:21.070Z,0.90
2023-01-15T00:10:47.351Z,0.82
2023-01-15T00:13:13.608Z,1.10
2023-01-15T00:15:39.874Z,0.95
2023-01-15T00:18:06.208Z,0.95
2023-01-15T00:20:32.405Z,1.02
2023-01-15T00:22:58.600Z,1.27
2023-01-15T00:25:43.382Z,1.15
2023-01-15T00:28:12.471Z,0.85
2023-01-15T00:30:40.438Z,1.17
2023-01-15T00:33:06.625Z,1.17
2023-01-15T00:35:32.857Z,1.00
2023-01-15T00:38:00.127Z,1.00
2023-01-15T00:40:26.335Z,1.00
2023-01-15T00:42:54.519Z,0.88
2023-01-15T00:45:21.049Z,1.23
2023-01-15T00:47:49.242Z,1.00
2023-01-15T00:50:16.158Z,1.05
2023-01-15T00:52:42.414Z,1.10
2023-01-15T00:55:08.810Z,0.90
2023-01-15T00:57:35.066Z,1.20
2023-01-15T01:00:01.321Z,1.00
2023-01-15T01:02:27.621Z,1.10
2023-01-15T01:04:53.921Z,0.98
2023-01-15T01:07:20.115Z,1.08
2023-01-15T01:09:46.564Z,0.90
2023-01-15T01:12:12.793Z,1.10
2023-01-15T01:14:39.719Z,1.20
2023-01-15T01:17:05.942Z,1.00
2023-01-15T01:19:32.219Z,1.13
2023-01-15T01:21:58.411Z,1.10
2023-01-15T01:24:24.678Z,0.90
2023-01-15T01:26:53.401Z,1.10
2023-01-15T01:29:21.463Z,1.10
2023-01-15T01:31:48.153Z,1.42
2023-01-15T01:34:14.457Z,1.10
2023-01-15T01:36:42.536Z,1.00
2023-01-15T01:39:12.175Z,0.80
2023-01-15T01:41:38.435Z,1.02
2023-01-15T01:44:05.871Z,1.00
2023-01-15T01:46:36.387Z,0.90
2023-01-15T01:49:04.610Z,0.65
2023-01-15T01:51:33.640Z,0.80
2023-01-15T01:54:00.399Z,0.85
2023-01-15T01:56:27.070Z,0.93
2023-01-15T01:58:54.919Z,0.90
2023-01-15T02:01:22.524Z,0.70
2023-01-15T02:03:48.853Z,0.88
2023-01-15T02:06:15.525Z,1.02
2023-01-15T02:08:41.911Z,1.02
2023-01-15T02:11:12.227Z,1.00
2023-01-15T02:13:39.440Z,0.90
2023-01-15T02:16:16.844Z,0.82
2023-01-15T02:18:45.830Z,0.73
2023-01-15T02:21:24.411Z,1.15
2023-01-15T02:24:01.902Z,0.73
2023-01-15T02:26:29.204Z,1.08
2023-01-15T02:28:57.404Z,1.17
2023-01-15T02:31:40.567Z,0.88
2023-01-15T02:34:19.687Z,0.70
2023-01-15T02:36:48.707Z,0.90
2023-01-15T02:39:15.923Z,1.00
2023-01-15T02:41:47.404Z,1.38
2023-01-15T02:46:41.089Z,0.93
2023-01-15T02:49:08.766Z,0.73
2023-01-15T02:51:46.615Z,1.17
2023-01-15T02:54:14.147Z,0.90
2023-01-15T02:56:40.947Z,1.02
2023-01-15T02:59:10.382Z,1.20
2023-01-15T03:01:40.557Z,0.77
2023-01-15T03:04:10.197Z,0.90
2023-01-15T03:06:43.701Z,0.82
2023-01-15T03:09:09.936Z,0.93
2023-01-15T03:11:38.963Z,0.80
2023-01-15T03:14:09.195Z,1.10
2023-01-15T03:16:39.582Z,0.80
2023-01-15T03:19:05.902Z,0.95
2023-01-15T03:21:47.203Z,1.23
2023-01-15T03:24:14.908Z,1.02
2023-01-15T03:26:41.148Z,1.42
2023-01-15T03:29:07.757Z,0.90
2023-01-15T03:31:34.803Z,1.20
2023-01-15T03:34:01.335Z,1.17
2023-01-15T03:36:27.572Z,1.33
2023-01-15T03:38:54.293Z,1.10
2023-01-15T03:41:35.260Z,0.90
2023-01-15T03:44:04.323Z,0.98
2023-01-15T03:46:49.333Z,1.00
2023-01-15T03:49:38.668Z,1.10
2023-01-15T03:52:06.717Z,0.98
2023-01-15T03:54:47.066Z,1.30
2023-01-15T03:57:28.669Z,1.42
2023-01-15T04:02:21.574Z,0.93
2023-01-15T04:04:48.332Z,1.20
2023-01-15T04:07:14.656Z,1.00
2023-01-15T04:09:40.939Z,1.17
2023-01-15T04:12:07.583Z,0.90
2023-01-15T04:14:33.962Z,1.10
2023-01-15T04:17:00.235Z,1.00
2023-01-15T04:19:26.463Z,1.30
2023-01-15T04:21:52.651Z,1.08
2023-01-15T04:24:18.868Z,0.95
2023-01-15T04:26:45.198Z,1.00
2023-01-15T04:29:11.414Z,1.10
2023-01-15T04:31:37.632Z,1.15
2023-01-15T04:34:04.331Z,1.45
2023-01-15T04:36:30.792Z,1.00
2023-01-15T04:38:59.127Z,1.00
2023-01-15T04:41:43.904Z,1.58
2023-01-15T04:44:10.128Z,1.13
2023-01-15T04:46:40.783Z,1.23
2023-01-15T04:49:08.777Z,1.30
2023-01-15T04:51:35.295Z,1.20
2023-01-15T04:54:02.101Z,1.35
2023-01-15T04:56:28.375Z,1.30
2023-01-15T04:58:54.617Z,1.27
2023-01-15T05:01:20.911Z,1.23
2023-01-15T05:03:47.237Z,1.15
2023-01-15T05:06:14.388Z,1.90
2023-01-15T05:08:40.632Z,1.17
2023-01-15T05:11:07.380Z,1.25
2023-01-15T05:13:33.715Z,1.10
2023-01-15T05:16:10.184Z,1.42
2023-01-15T05:18:36.477Z,0.80
2023-01-15T05:21:02.787Z,1.70
2023-01-15T05:23:29.001Z,1.48
2023-01-15T05:25:55.292Z,1.40
2023-01-15T05:28:21.499Z,2.22
2023-01-15T05:30:47.711Z,1.42
2023-01-15T05:33:13.909Z,1.55
2023-01-15T05:35:40.091Z,1.48
2023-01-15T05:38:06.802Z,1.65
2023-01-15T05:40:33.085Z,1.40
2023-01-15T05:42:59.267Z,1.50
2023-01-15T05:45:25.468Z,1.90
2023-01-15T05:47:53.101Z,1.60
2023-01-15T05:50:19.300Z,1.30
2023-01-15T05:52:45.532Z,1.42
2023-01-15T05:55:11.732Z,1.52
2023-01-15T05:57:37.923Z,1.48
2023-01-15T06:00:04.680Z,1.77
2023-01-15T06:02:30.896Z,1.88
2023-01-15T06:04:57.119Z,1.40
2023-01-15T06:07:23.314Z,1.10
2023-01-15T06:09:49.539Z,1.20
2023-01-15T06:12:15.729Z,2.10
2023-01-15T06:14:41.937Z,1.33
2023-01-15T06:17:08.152Z,1.67
2023-01-15T06:19:34.370Z,1.75
2023-01-15T06:22:00.559Z,1.65
2023-01-15T06:24:26.825Z,1.52
2023-01-15T06:26:53.031Z,1.75
2023-01-15T06:29:20.345Z,1.27
2023-01-15T06:31:47.624Z,1.40
2023-01-15T06:34:13.915Z,1.60
2023-01-15T06:36:40.132Z,1.38
2023-01-15T06:39:06.329Z,1.38
2023-01-15T06:41:51.093Z,1.13
2023-01-15T06:44:36.540Z,1.08
2023-01-15T06:47:21.834Z,1.50
2023-01-15T06:49:49.252Z,1.00
2023-01-15T06:52:15.527Z,1.10
2023-01-15T06:54:41.785Z,1.10
2023-01-15T06:57:07.967Z,1.15
2023-01-15T06:59:34.196Z,1.33
2023-01-15T07:02:00.505Z,1.00
2023-01-15T07:04:26.760Z,1.02
2023-01-15T07:06:52.969Z,0.85
2023-01-15T07:09:19.168Z,0.90
2023-01-15T07:11:51.639Z,1.58
2023-01-15T07:14:18.882Z,0.85
2023-01-15T07:16:45.493Z,0.70
2023-01-15T07:19:11.962Z,0.95
2023-01-15T07:21:38.491Z,0.85
2023-01-15T07:24:05.044Z,0.98
2023-01-15T07:26:31.269Z,0.70
2023-01-15T07:28:57.457Z,0.70
2023-01-15T07:31:23.693Z,0.80
2023-01-15T07:33:49.925Z,0.90
2023-01-15T07:36:16.151Z,0.73
2023-01-15T07:38:42.491Z,0.70
2023-01-15T07:41:27.441Z,0.70
2023-01-15T07:44:12.535Z,0.90
2023-01-15T07:46:57.360Z,0.90
2023-01-15T07:49:56.060Z,0.82
2023-01-15T07:52:22.670Z,0.90
2023-01-15T07:54:49.850Z,0.90
2023-01-15T07:57:17.938Z,0.80
2023-01-15T07:59:44.186Z,1.00
2023-01-15T08:02:10.399Z,0.80
2023-01-15T08:04:36.670Z,0.98
2023-01-15T08:07:03.383Z,0.90
2023-01-15T08:09:30.113Z,1.00
2023-01-15T08:12:17.107Z,1.00
2023-01-15T08:15:02.009Z,0.75
2023-01-15T08:17:28.210Z,0.80
2023-01-15T08:19:54.446Z,0.90
2023-01-15T08:22:20.797Z,0.70
2023-01-15T08:24:46.997Z,0.90
2023-01-15T08:27:13.939Z,0.60
2023-01-15T08:29:40.330Z,0.60
2023-01-15T08:32:06.520Z,0.80
2023-01-15T08:34:32.725Z,0.80
2023-01-15T08:37:00.146Z,0.80
2023-01-15T08:39:27.211Z,0.60
2023-01-15T08:41:55.343Z,0.80
2023-01-15T08:44:21.833Z,0.60
2023-01-15T08:46:48.475Z,0.70
2023-01-15T08:49:14.838Z,1.05
2023-01-15T08:51:41.056Z,0.75
2023-01-15T08:54:07.235Z,1.20
2023-01-15T08:56:33.517Z,1.02
2023-01-15T08:58:59.720Z,0.95
2023-01-15T09:01:25.970Z,0.80
2023-01-15T09:03:52.290Z,1.00
2023-01-15T09:06:18.549Z,1.20
2023-01-15T09:08:44.816Z,1.27
2023-01-15T09:11:12.939Z,1.00
2023-01-15T09:13:39.251Z,1.00
2023-01-15T09:16:06.208Z,1.20
2023-01-15T09:18:33.019Z,1.20
2023-01-15T09:20:59.380Z,1.42
2023-01-15T09:23:25.779Z,1.48
2023-01-15T09:25:55.768Z,1.17
2023-01-15T09:28:22.068Z,1.38
2023-01-15T09:30:48.467Z,1.45
2023-01-15T09:33:14.759Z,1.98
2023-01-15T09:35:42.141Z,1.70
2023-01-15T09:38:11.517Z,1.55
2023-01-15T09:40:51.289Z,1.35
2023-01-15T09:43:27.326Z,1.67
2023-01-15T09:46:01.187Z,1.70
2023-01-15T09:48:35.112Z,1.60
2023-01-15T09:51:13.535Z,1.60
2023-01-15T09:53:45.839Z,1.60
2023-01-15T09:56:16.367Z,1.60
2023-01-15T09:58:42.774Z,2.20
2023-01-15T10:01:15.041Z,1.35
2023-01-15T10:04:13.862Z,1.25
2023-01-15T10:06:50.427Z,1.98
2023-01-15T10:09:20.365Z,1.75
2023-01-15T10:12:09.835Z,2.00
2023-01-15T10:14:40.055Z,1.60
2023-01-15T10:17:18.012Z,1.67
2023-01-15T10:19:45.083Z,2.08
2023-01-15T10:22:27.144Z,1.60
2023-01-15T10:24:57.356Z,1.60
2023-01-15T10:27:25.106Z,1.98
2023-01-15T10:29:58.891Z,1.60
2023-01-15T10:32:40.846Z,1.50
2023-01-15T10:35:21.680Z,1.77
2023-01-15T10:38:02.417Z,1.40
2023-01-15T10:40:28.644Z,1.60
2023-01-15T10:43:13.790Z,1.70
2023-01-15T10:45:51.753Z,1.65
2023-01-15T10:48:27.005Z,1.40
2023-01-15T10:50:53.761Z,1.55
2023-01-15T10:53:40.358Z,1.70
2023-01-15T10:56:09.625Z,1.50
2023-01-15T10:58:54.982Z,2.00
2023-01-15T11:01:23.772Z,1.00
2023-01-15T11:03:50.248Z,1.40
2023-01-15T11:06:17.790Z,1.10
2023-01-15T11:12:01.841Z,1.45
2023-01-15T11:15:02.554Z,1.50
2023-01-15T11:17:49.654Z,1.60
2023-01-15T11:20:28.680Z,1.67
2023-01-15T11:22:56.817Z,1.40
2023-01-15T11:25:29.963Z,1.05
2023-01-15T11:27:57.774Z,1.08
2023-01-15T11:30:25.406Z,1.65
2023-01-15T11:32:55.211Z,1.23
2023-01-15T11:35:21.440Z,1.20
2023-01-15T11:37:47.805Z,1.38
2023-01-15T11:40:17.911Z,1.60
2023-01-15T11:43:06.689Z,1.98
2023-01-15T11:45:51.544Z,1.42
2023-01-15T11:48:37.625Z,1.48
2023-01-15T11:51:14.819Z,1.20
2023-01-15T11:53:44.249Z,1.40
2023-01-15T11:56:13.284Z,1.40
2023-01-15T11:58:41.660Z,1.27
2023-01-15T12:01:08.014Z,1.60
2023-01-15T12:03:36.024Z,1.40
2023-01-15T12:06:05.529Z,1.35
2023-01-15T12:08:34.756Z,1.42
2023-01-15T12:11:21.022Z,1.52
2023-01-15T12:14:14.884Z,1.13
2023-01-15T12:16:44.236Z,1.30
2023-01-15T12:19:10.421Z,1.10
2023-01-15T12:21:36.607Z,1.83
2023-01-15T12:24:21.250Z,0.93
2023-01-15T12:27:00.301Z,1.10
2023-01-15T12:29:27.799Z,1.40
2023-01-15T12:31:59.461Z,1.30
2023-01-15T12:34:42.745Z,1.08
2023-01-15T12:37:21.309Z,1.33
2023-01-15T12:40:06.225Z,1.60
2023-01-15T12:42:52.186Z,1.40
2023-01-15T12:45:21.842Z,1.10
2023-01-15T12:48:07.152Z,1.30
2023-01-15T12:50:39.700Z,1.38
2023-01-15T12:53:11.982Z,1.70
2023-01-15T12:55:42.632Z,1.00
2023-01-15T12:58:31.158Z,1.17
2023-01-15T13:01:04.391Z,1.08
2023-01-15T13:03:32.779Z,1.35
2023-01-15T13:06:01.258Z,1.48
2023-01-15T13:08:51.441Z,1.25
2023-01-15T13:11:17.772Z,1.40
2023-01-15T13:13:57.758Z,1.25
2023-01-15T13:16:46.389Z,1.38
2023-01-15T13:19:21.457Z,0.88
2023-01-15T13:21:51.929Z,1.58
2023-01-15T13:24:23.028Z,1.27
2023-01-15T13:27:08.119Z,1.00
2023-01-15T13:29:40.165Z,1.30
2023-01-15T13:32:06.474Z,1.38
2023-01-15T13:34:50.021Z,1.33
2023-01-15T13:37:19.982Z,1.38
2023-01-15T13:39:48.120Z,1.40
2023-01-15T13:42:33.395Z,1.10
2023-01-15T13:45:02.570Z,1.13
2023-01-15T13:47:30.348Z,1.10
2023-01-15T13:50:01.350Z,1.10
2023-01-15T13:52:30.209Z,0.90
2023-01-15T13:55:01.212Z,1.35
2023-01-15T13:57:35.594Z,1.00
2023-01-15T14:00:04.354Z,0.90
2023-01-15T14:02:31.858Z,0.90
2023-01-15T14:04:58.337Z,1.63
2023-01-15T14:07:34.983Z,1.08
2023-01-15T14:10:23.326Z,1.20
2023-01-15T14:12:55.783Z,1.10
2023-01-15T14:15:29.495Z,1.55
2023-01-15T14:18:04.225Z,1.20
2023-01-15T14:20:53.204Z,1.00
2023-01-15T14:23:32.844Z,1.40
2023-01-15T14:26:10.101Z,1.10
2023-01-15T14:28:54.996Z,1.30
2023-01-15T14:31:39.643Z,1.42
2023-01-15T14:34:17.069Z,1.30
2023-01-15T14:36:46.042Z,1.20
2023-01-15T14:39:24.192Z,1.38
2023-01-15T14:42:13.710Z,1.35
2023-01-15T14:44:42.844Z,1.33
2023-01-15T14:47:13.931Z,1.30
2023-01-15T14:49:49.485Z,1.50
2023-01-15T14:52:21.622Z,1.48
2023-01-15T14:54:48.111Z,1.40
2023-01-15T14:57:15.747Z,1.30
2023-01-15T14:59:56.928Z,1.30
2023-01-15T15:02:25.526Z,1.35
2023-01-15T15:04:53.925Z,1.27
2023-01-15T15:07:25.226Z,1.33
2023-01-15T15:10:16.689Z,1.30
2023-01-15T15:12:55.730Z,1.00
2023-01-15T15:15:24.733Z,1.67
2023-01-15T15:17:57.802Z,1.30
2023-01-15T15:20:47.571Z,1.00
2023-01-15T15:23:19.718Z,1.55
2023-01-15T15:25:52.068Z,1.42
2023-01-15T15:28:18.269Z,1.13
2023-01-15T15:30:45.376Z,1.20
2023-01-15T15:33:19.498Z,1.23
2023-01-15T15:35:47.776Z,1.20
2023-01-15T15:38:15.363Z,1.00
2023-01-15T15:40:45.261Z,1.33
2023-01-15T15:43:37.805Z,1.38
2023-01-15T15:46:39.255Z,1.05
2023-01-15T15:49:06.930Z,1.23
2023-01-15T15:51:44.710Z,1.10
2023-01-15T15:54:18.744Z,1.05
2023-01-15T15:56:51.066Z,1.85
2023-01-15T15:59:22.626Z,0.90
2023-01-15T16:04:17.587Z,1.30
2023-01-15T16:06:43.929Z,1.00
2023-01-15T16:09:10.436Z,1.25
2023-01-15T16:11:38.274Z,1.10
2023-01-15T16:14:06.331Z,1.60
2023-01-15T16:16:32.844Z,1.17
2023-01-15T16:18:59.823Z,1.13
2023-01-15T16:21:26.005Z,1.20
2023-01-15T16:23:58.931Z,1.27
2023-01-15T16:26:36.494Z,1.08
2023-01-15T16:29:04.430Z,1.20
2023-01-15T16:31:34.533Z,1.20
2023-01-15T16:34:00.913Z,1.67
2023-01-15T16:36:27.508Z,1.20
2023-01-15T16:38:54.279Z,1.33
2023-01-15T16:41:29.424Z,1.48
2023-01-15T16:43:57.402Z,1.17
2023-01-15T16:46:25.366Z,1.33
2023-01-15T16:49:11.559Z,1.30
2023-01-15T16:51:42.150Z,1.48
2023-01-15T16:54:28.303Z,1.30
2023-01-15T16:56:54.912Z,1.40
2023-01-15T16:59:27.108Z,1.55
2023-01-15T17:02:03.350Z,1.20
2023-01-15T17:04:31.286Z,1.10
2023-01-15T17:07:05.009Z,1.48
2023-01-15T17:09:33.244Z,1.15
2023-01-15T17:12:01.130Z,1.20
2023-01-15T17:14:29.661Z,1.30
2023-01-15T17:17:15.730Z,1.40
2023-01-15T17:19:42.826Z,1.60
2023-01-15T17:22:28.180Z,1.27
2023-01-15T17:24:56.517Z,1.30
2023-01-15T17:27:23.512Z,1.10
2023-01-15T17:29:49.909Z,1.20
2023-01-15T17:32:33.491Z,1.05
2023-01-15T17:34:59.679Z,1.13
2023-01-15T17:37:25.879Z,1.35
2023-01-15T17:39:52.149Z,1.40
2023-01-15T17:42:19.458Z,1.60
2023-01-15T17:44:46.029Z,1.30
2023-01-15T17:47:12.493Z,1.17
2023-01-15T17:49:39.028Z,1.30
2023-01-15T17:52:06.807Z,1.08
2023-01-15T17:54:51.774Z,1.60
2023-01-15T17:57:36.826Z,1.80
2023-01-15T18:00:22.282Z,1.60
2023-01-15T18:03:07.209Z,1.50
2023-01-15T18:05:35.241Z,1.27
2023-01-15T18:08:03.113Z,1.45
2023-01-15T18:10:29.472Z,1.23
2023-01-15T18:12:56.149Z,1.40
2023-01-15T18:15:22.414Z,1.52
2023-01-15T18:17:48.662Z,1.42
2023-01-15T18:20:14.975Z,1.70
2023-01-15T18:22:41.166Z,1.05
2023-01-15T18:25:10.496Z,1.70
2023-01-15T18:27:42.520Z,1.70
2023-01-15T18:30:13.166Z,1.80
2023-01-15T18:32:40.008Z,1.40
2023-01-15T18:35:06.362Z,1.30
2023-01-15T18:37:36.974Z,1.48
2023-01-15T18:40:03.575Z,1.73
2023-01-15T18:42:48.223Z,1.40
2023-01-15T18:45:33.292Z,1.50
2023-01-15T18:48:02.748Z,1.38
2023-01-15T18:50:29.337Z,1.42
2023-01-15T18:52:55.690Z,1.73
2023-01-15T18:55:28.605Z,1.67
2023-01-15T18:57:55.389Z,1.73
2023-01-15T19:00:22.685Z,1.90
2023-01-15T19:02:49.411Z,1.30
2023-01-15T19:05:17.010Z,1.55
2023-01-15T19:07:43.849Z,1.50
2023-01-15T19:10:11.522Z,1.23
2023-01-15T19:12:38.202Z,1.42
2023-01-15T19:15:24.116Z,1.75
2023-01-15T19:18:09.089Z,1.98
2023-01-15T19:20:36.913Z,2.10
2023-01-15T19:23:05.815Z,2.13
2023-01-15T19:25:37.633Z,2.40
2023-01-15T19:30:31.798Z,2.20
2023-01-15T19:32:58.096Z,2.35
2023-01-15T19:35:24.325Z,2.42
2023-01-15T19:37:50.505Z,2.05
2023-01-15T19:40:23.103Z,2.17
2023-01-15T19:43:08.768Z,2.28
2023-01-15T19:45:54.464Z,2.35
2023-01-15T19:48:39.338Z,2.42
2023-01-15T19:51:06.020Z,2.28
2023-01-15T19:53:32.278Z,2.05
2023-01-15T19:55:58.537Z,1.73
2023-01-15T19:58:24.763Z,2.20
2023-01-15T20:00:52.818Z,2.00
2023-01-15T20:03:19.377Z,2.22
2023-01-15T20:05:46.910Z,1.88
2023-01-15T20:08:14.237Z,2.00
2023-01-15T20:10:41.801Z,2.38
2023-01-15T20:13:33.916Z,2.00
2023-01-15T20:16:05.604Z,2.35
2023-01-15T20:18:31.894Z,2.30
2023-01-15T20:20:58.210Z,2.10
2023-01-15T20:23:24.435Z,2.08
2023-01-15T20:25:53.171Z,2.30
2023-01-15T20:28:20.041Z,2.30
2023-01-15T20:30:46.677Z,2.28
2023-01-15T20:33:13.561Z,2.47
2023-01-15T20:35:39.772Z,2.33
2023-01-15T20:38:07.077Z,2.60
2023-01-15T20:40:33.380Z,2.00
2023-01-15T20:43:18.509Z,1.95
2023-01-15T20:45:44.809Z,2.63
2023-01-15T20:48:13.892Z,2.35
2023-01-15T20:50:43.259Z,2.60
2023-01-15T20:53:10.103Z,2.50
2023-01-15T20:55:54.728Z,2.58
2023-01-15T20:58:22.185Z,2.50
2023-01-15T21:00:48.408Z,2.40
2023-01-15T21:03:14.674Z,2.53
2023-01-15T21:05:40.901Z,2.25
2023-01-15T21:08:07.112Z,2.33
2023-01-15T21:10:33.312Z,2.55
2023-01-15T21:12:59.720Z,2.47
2023-01-15T21:15:26.056Z,2.35
2023-01-15T21:17:52.240Z,2.28
2023-01-15T21:20:18.439Z,2.03
2023-01-15T21:22:44.734Z,1.80
2023-01-15T21:25:11.014Z,1.90
2023-01-15T21:27:37.678Z,1.80
2023-01-15T21:30:04.673Z,1.77
2023-01-15T21:32:30.893Z,2.13
2023-01-15T21:34:57.339Z,1.98
2023-01-15T21:37:23.581Z,1.80
2023-01-15T21:39:50.019Z,2.00
2023-01-15T21:42:36.133Z,1.92
2023-01-15T21:45:04.574Z,2.20
2023-01-15T21:47:31.193Z,2.00
2023-01-15T21:49:58.985Z,2.00
2023-01-15T21:52:25.500Z,1.90
2023-01-15T21:54:52.156Z,1.88
2023-01-15T21:57:19.102Z,2.17
2023-01-15T21:59:45.971Z,1.90
2023-01-15T22:02:17.205Z,2.03
2023-01-15T22:04:43.803Z,1.95
2023-01-15T22:07:10.683Z,1.80
2023-01-15T22:09:37.158Z,2.45
2023-01-15T22:12:03.527Z,1.85
2023-01-15T22:14:30.519Z,1.58
2023-01-15T22:16:58.068Z,1.75
2023-01-15T22:19:26.777Z,1.50
2023-01-15T22:21:54.330Z,1.80
2023-01-15T22:24:21.248Z,1.58
2023-01-15T22:26:53.880Z,2.13
2023-01-15T22:29:27.968Z,1.75
2023-01-15T22:31:54.243Z,1.70
2023-01-15T22:34:23.787Z,1.80
2023-01-15T22:36:50.352Z,1.50
2023-01-15T22:39:16.971Z,2.03
2023-01-15T22:42:01.942Z,1.63
2023-01-15T22:44:28.637Z,1.70
2023-01-15T22:46:54.896Z,1.77
2023-01-15T22:49:21.635Z,1.33
2023-01-15T22:51:48.339Z,1.55
2023-01-15T22:54:14.628Z,1.40
2023-01-15T22:56:41.063Z,1.40
2023-01-15T22:59:07.353Z,1.90
2023-01-15T23:01:33.838Z,1.40
2023-01-15T23:04:00.093Z,1.60
2023-01-15T23:06:28.399Z,1.23
2023-01-15T23:08:58.072Z,1.63
2023-01-15T23:11:24.740Z,1.38
2023-01-15T23:13:51.324Z,1.58
2023-01-15T23:16:17.725Z,1.20
2023-01-15T23:18:44.036Z,1.20
2023-01-15T23:21:11.759Z,1.48
2023-01-15T23:23:38.086Z,1.40
2023-01-15T23:26:06.020Z,1.50
2023-01-15T23:28:32.335Z,1.40
2023-01-15T23:30:58.604Z,1.30
2023-01-15T23:33:25.678Z,1.00
2023-01-15T23:35:52.521Z,1.48
2023-01-15T23:38:18.983Z,1.50
2023-01-15T23:40:45.310Z,1.30
2023-01-15T23:43:31.483Z,1.40
2023-01-15T23:46:16.486Z,1.20
2023-01-15T23:48:42.738Z,1.20
2023-01-15T23:51:09.098Z,1.20
2023-01-15T23:53:35.297Z,1.67
2023-01-15T23:56:03.134Z,1.92
2023-01-15T23:58:29.633Z,1.30
